sensor_id;sensor_type;location;lat;lon;timestamp;pressure;altitude;pressure_sealevel;temperature;humidity
56912;BME280;42800;53.928;27.662;2022-08-01T00:01:23;98925.22;;;17.93;100.00
56912;BME280;42800;53.928;27.662;2022-08-01T00:03:49;98935.78;;;18.02;100.00
56912;BME280;42800;53.928;27.662;2022-08-01T00:06:15;98926.50;;;17.58;100.00
56912;BME280;42800;53.928;27.662;2022-08-01T00:08:42;98915.94;;;17.80;100.00
56912;BME280;42800;53.928;27.662;2022-08-01T00:11:08;98910.59;;;17.62;100.00
56912;BME280;42800;53.928;27.662;2022-08-01T00:13:35;98905.31;;;17.71;100.00
56912;BME280;42800;53.928;27.662;2022-08-01T00:16:02;98897.78;;;17.72;100.00
56912;BME280;42800;53.928;27.662;2022-08-01T00:18:28;98906.94;;;17.69;100.00
56912;BME280;42800;53.928;27.662;2022-08-01T00:20:54;98900.56;;;17.72;100.00
56912;BME280;42800;53.928;27.662;2022-08-01T00:23:20;98912.25;;;17.86;100.00
56912;BME280;42800;53.928;27.662;2022-08-01T00:25:47;98927.09;;;17.73;100.00
56912;BME280;42800;53.928;27.662;2022-08-01T00:28:13;98935.63;;;17.85;100.00
56912;BME280;42800;53.928;27.662;2022-08-01T00:30:40;98944.44;;;17.80;100.00
56912;BME280;42800;53.928;27.662;2022-08-01T00:33:06;98938.50;;;17.78;100.00
56912;BME280;42800;53.928;27.662;2022-08-01T00:35:32;98944.28;;;17.60;100.00
56912;BME280;42800;53.928;27.662;2022-08-01T00:37:59;98950.31;;;17.82;100.00
56912;BME280;42800;53.928;27.662;2022-08-01T00:40:25;98951.25;;;17.72;100.00
56912;BME280;42800;53.928;27.662;2022-08-01T00:42:51;98939.50;;;17.92;100.00
56912;BME280;42800;53.928;27.662;2022-08-01T00:45:17;98956.88;;;17.96;100.00
56912;BME280;42800;53.928;27.662;2022-08-01T00:47:45;98964.72;;;18.01;100.00
56912;BME280;42800;53.928;27.662;2022-08-01T00:50:11;98985.81;;;17.95;100.00
56912;BME280;42800;53.928;27.662;2022-08-01T00:52:39;98990.28;;;18.12;100.00
56912;BME280;42800;53.928;27.662;2022-08-01T00:55:06;99005.06;;;18.05;100.00
56912;BME280;42800;53.928;27.662;2022-08-01T00:57:33;99002.28;;;18.05;100.00
56912;BME280;42800;53.928;27.662;2022-08-01T00:59:59;99007.06;;;18.05;100.00
56912;BME280;42800;53.928;27.662;2022-08-01T01:02:26;98996.28;;;18.10;100.00
56912;BME280;42800;53.928;27.662;2022-08-01T01:04:52;99007.38;;;18.10;100.00
56912;BME280;42800;53.928;27.662;2022-08-01T01:07:21;99002.84;;;17.97;100.00
56912;BME280;42800;53.928;27.662;2022-08-01T01:09:57;99013.16;;;17.96;100.00
56912;BME280;42800;53.928;27.662;2022-08-01T01:12:29;99018.41;;;18.14;100.00
56912;BME280;42800;53.928;27.662;2022-08-01T01:15:02;99010.66;;;18.02;100.00
56912;BME280;42800;53.928;27.662;2022-08-01T01:17:35;99019.41;;;18.00;100.00
56912;BME280;42800;53.928;27.662;2022-08-01T01:20:05;99026.16;;;17.99;100.00
56912;BME280;42800;53.928;27.662;2022-08-01T01:22:45;99033.19;;;18.07;100.00
56912;BME280;42800;53.928;27.662;2022-08-01T01:25:40;99039.13;;;18.06;100.00
56912;BME280;42800;53.928;27.662;2022-08-01T01:28:12;99025.75;;;18.01;100.00
56912;BME280;42800;53.928;27.662;2022-08-01T01:30:41;99031.91;;;18.12;100.00
56912;BME280;42800;53.928;27.662;2022-08-01T01:33:10;99027.00;;;17.96;100.00
56912;BME280;42800;53.928;27.662;2022-08-01T01:35:42;99041.44;;;18.11;100.00
56912;BME280;42800;53.928;27.662;2022-08-01T01:38:15;99037.84;;;18.14;100.00
56912;BME280;42800;53.928;27.662;2022-08-01T01:40:43;99051.59;;;18.21;100.00
56912;BME280;42800;53.928;27.662;2022-08-01T01:43:11;99054.66;;;18.03;100.00
56912;BME280;42800;53.928;27.662;2022-08-01T01:45:39;99040.88;;;17.96;100.00
56912;BME280;42800;53.928;27.662;2022-08-01T01:48:07;99059.59;;;17.88;100.00
56912;BME280;42800;53.928;27.662;2022-08-01T01:50:35;99040.72;;;18.07;100.00
56912;BME280;42800;53.928;27.662;2022-08-01T01:53:02;99059.19;;;18.17;100.00
56912;BME280;42800;53.928;27.662;2022-08-01T01:55:30;99059.59;;;18.16;100.00
56912;BME280;42800;53.928;27.662;2022-08-01T01:57:58;99062.75;;;18.18;100.00
56912;BME280;42800;53.928;27.662;2022-08-01T02:00:26;99067.34;;;18.01;100.00
56912;BME280;42800;53.928;27.662;2022-08-01T02:02:55;99068.72;;;18.16;100.00
56912;BME280;42800;53.928;27.662;2022-08-01T02:05:24;99062.53;;;18.05;100.00
56912;BME280;42800;53.928;27.662;2022-08-01T02:07:53;99072.00;;;18.07;100.00
56912;BME280;42800;53.928;27.662;2022-08-01T02:10:21;99063.78;;;18.00;100.00
56912;BME280;42800;53.928;27.662;2022-08-01T02:12:49;99076.41;;;18.05;100.00
56912;BME280;42800;53.928;27.662;2022-08-01T02:15:18;99083.13;;;18.07;100.00
56912;BME280;42800;53.928;27.662;2022-08-01T02:17:48;99068.19;;;18.25;100.00
56912;BME280;42800;53.928;27.662;2022-08-01T02:20:16;99077.78;;;18.20;100.00
56912;BME280;42800;53.928;27.662;2022-08-01T02:22:47;99066.78;;;18.13;100.00
56912;BME280;42800;53.928;27.662;2022-08-01T02:25:18;99092.31;;;18.01;100.00
56912;BME280;42800;53.928;27.662;2022-08-01T02:27:50;99075.78;;;17.94;100.00
56912;BME280;42800;53.928;27.662;2022-08-01T02:30:18;99083.63;;;17.99;100.00
56912;BME280;42800;53.928;27.662;2022-08-01T02:32:47;99080.38;;;18.04;100.00
56912;BME280;42800;53.928;27.662;2022-08-01T02:35:20;99082.59;;;18.16;100.00
56912;BME280;42800;53.928;27.662;2022-08-01T02:37:48;99089.06;;;18.06;100.00
56912;BME280;42800;53.928;27.662;2022-08-01T02:40:16;99075.81;;;17.90;100.00
56912;BME280;42800;53.928;27.662;2022-08-01T02:42:46;99080.06;;;17.98;100.00
56912;BME280;42800;53.928;27.662;2022-08-01T02:45:13;99085.94;;;18.04;100.00
56912;BME280;42800;53.928;27.662;2022-08-01T02:47:44;99082.16;;;17.91;100.00
56912;BME280;42800;53.928;27.662;2022-08-01T02:50:13;99082.84;;;17.64;100.00
56912;BME280;42800;53.928;27.662;2022-08-01T02:52:41;99064.50;;;17.77;100.00
56912;BME280;42800;53.928;27.662;2022-08-01T02:55:10;99070.22;;;17.94;100.00
56912;BME280;42800;53.928;27.662;2022-08-01T02:57:38;99078.50;;;17.97;100.00
56912;BME280;42800;53.928;27.662;2022-08-01T03:00:07;99073.97;;;17.80;100.00
56912;BME280;42800;53.928;27.662;2022-08-01T03:02:35;99064.16;;;18.02;100.00
56912;BME280;42800;53.928;27.662;2022-08-01T03:05:04;99083.75;;;17.88;100.00
56912;BME280;42800;53.928;27.662;2022-08-01T03:07:32;99075.19;;;18.06;100.00
56912;BME280;42800;53.928;27.662;2022-08-01T03:09:58;99078.91;;;17.96;100.00
56912;BME280;42800;53.928;27.662;2022-08-01T03:12:29;99084.78;;;18.01;100.00
56912;BME280;42800;53.928;27.662;2022-08-01T03:14:59;99088.31;;;18.02;100.00
56912;BME280;42800;53.928;27.662;2022-08-01T03:17:28;99092.09;;;17.88;100.00
56912;BME280;42800;53.928;27.662;2022-08-01T03:19:56;99089.81;;;17.76;100.00
56912;BME280;42800;53.928;27.662;2022-08-01T03:22:25;99095.47;;;18.03;100.00
56912;BME280;42800;53.928;27.662;2022-08-01T03:24:53;99089.44;;;18.08;100.00
56912;BME280;42800;53.928;27.662;2022-08-01T03:27:21;99097.91;;;17.97;100.00
56912;BME280;42800;53.928;27.662;2022-08-01T03:29:49;99096.25;;;18.03;100.00
56912;BME280;42800;53.928;27.662;2022-08-01T03:32:17;99089.81;;;18.10;100.00
56912;BME280;42800;53.928;27.662;2022-08-01T03:34:44;99101.34;;;18.35;100.00
56912;BME280;42800;53.928;27.662;2022-08-01T03:37:14;99106.31;;;18.21;100.00
56912;BME280;42800;53.928;27.662;2022-08-01T03:39:47;99105.38;;;18.31;100.00
56912;BME280;42800;53.928;27.662;2022-08-01T03:42:18;99106.09;;;18.35;100.00
56912;BME280;42800;53.928;27.662;2022-08-01T03:44:51;99111.59;;;18.39;100.00
56912;BME280;42800;53.928;27.662;2022-08-01T03:47:18;99107.47;;;18.50;100.00
56912;BME280;42800;53.928;27.662;2022-08-01T03:49:48;99106.38;;;18.44;100.00
56912;BME280;42800;53.928;27.662;2022-08-01T03:52:18;99106.41;;;18.41;100.00
56912;BME280;42800;53.928;27.662;2022-08-01T03:54:47;99097.69;;;18.66;100.00
56912;BME280;42800;53.928;27.662;2022-08-01T03:57:14;99100.44;;;18.42;100.00
56912;BME280;42800;53.928;27.662;2022-08-01T03:59:42;99096.69;;;18.83;100.00
56912;BME280;42800;53.928;27.662;2022-08-01T04:02:11;99089.00;;;18.91;100.00
56912;BME280;42800;53.928;27.662;2022-08-01T04:04:39;99095.81;;;18.59;100.00
56912;BME280;42800;53.928;27.662;2022-08-01T04:07:21;99079.94;;;18.87;100.00
56912;BME280;42800;53.928;27.662;2022-08-01T04:09:47;99072.59;;;18.76;100.00
56912;BME280;42800;53.928;27.662;2022-08-01T04:12:13;99081.50;;;18.88;100.00
56912;BME280;42800;53.928;27.662;2022-08-01T04:14:40;99087.97;;;18.81;100.00
56912;BME280;42800;53.928;27.662;2022-08-01T04:17:06;99057.97;;;19.16;100.00
56912;BME280;42800;53.928;27.662;2022-08-01T04:19:33;99034.25;;;19.11;100.00
56912;BME280;42800;53.928;27.662;2022-08-01T04:21:59;98990.41;;;18.99;100.00
56912;BME280;42800;53.928;27.662;2022-08-01T04:24:26;98994.03;;;19.39;100.00
56912;BME280;42800;53.928;27.662;2022-08-01T04:26:56;98989.50;;;19.25;100.00
56912;BME280;42800;53.928;27.662;2022-08-01T04:29:24;99021.91;;;18.92;100.00
56912;BME280;42800;53.928;27.662;2022-08-01T04:31:54;99029.03;;;18.93;100.00
56912;BME280;42800;53.928;27.662;2022-08-01T04:34:23;99031.84;;;19.13;100.00
56912;BME280;42800;53.928;27.662;2022-08-01T04:36:52;99007.25;;;19.32;100.00
56912;BME280;42800;53.928;27.662;2022-08-01T04:39:20;98999.84;;;19.05;100.00
56912;BME280;42800;53.928;27.662;2022-08-01T04:41:48;98995.91;;;19.22;100.00
56912;BME280;42800;53.928;27.662;2022-08-01T04:44:15;98988.31;;;19.26;100.00
56912;BME280;42800;53.928;27.662;2022-08-01T04:46:42;98983.38;;;19.34;100.00
56912;BME280;42800;53.928;27.662;2022-08-01T04:49:10;98952.78;;;19.54;100.00
56912;BME280;42800;53.928;27.662;2022-08-01T04:51:37;98940.41;;;19.39;100.00
56912;BME280;42800;53.928;27.662;2022-08-01T04:54:15;98941.72;;;19.70;100.00
56912;BME280;42800;53.928;27.662;2022-08-01T04:56:41;98910.00;;;19.84;100.00
56912;BME280;42800;53.928;27.662;2022-08-01T04:59:08;98831.34;;;20.29;100.00
56912;BME280;42800;53.928;27.662;2022-08-01T05:01:52;98751.78;;;20.86;100.00
56912;BME280;42800;53.928;27.662;2022-08-01T05:04:18;98524.25;;;21.84;100.00
56912;BME280;42800;53.928;27.662;2022-08-01T05:06:45;98276.09;;;21.99;100.00
56912;BME280;42800;53.928;27.662;2022-08-01T05:09:11;98146.53;;;22.61;100.00
56912;BME280;42800;53.928;27.662;2022-08-01T05:11:38;98136.56;;;22.17;100.00
56912;BME280;42800;53.928;27.662;2022-08-01T05:14:04;98098.13;;;21.94;100.00
56912;BME280;42800;53.928;27.662;2022-08-01T05:16:32;98045.50;;;23.34;100.00
56912;BME280;42800;53.928;27.662;2022-08-01T05:18:58;98076.84;;;22.15;100.00
56912;BME280;42800;53.928;27.662;2022-08-01T05:21:24;98059.50;;;22.20;100.00
56912;BME280;42800;53.928;27.662;2022-08-01T05:23:50;98145.34;;;22.43;100.00
56912;BME280;42800;53.928;27.662;2022-08-01T05:26:17;98165.53;;;21.92;100.00
56912;BME280;42800;53.928;27.662;2022-08-01T05:28:44;98244.94;;;22.00;100.00
56912;BME280;42800;53.928;27.662;2022-08-01T05:31:10;98210.13;;;22.66;100.00
56912;BME280;42800;53.928;27.662;2022-08-01T05:33:36;98250.72;;;21.38;100.00
56912;BME280;42800;53.928;27.662;2022-08-01T05:36:03;98223.38;;;22.01;100.00
56912;BME280;42800;53.928;27.662;2022-08-01T05:38:29;98117.91;;;22.75;100.00
56912;BME280;42800;53.928;27.662;2022-08-01T05:40:56;98020.91;;;22.00;100.00
56912;BME280;42800;53.928;27.662;2022-08-01T05:43:22;98098.84;;;22.22;100.00
56912;BME280;42800;53.928;27.662;2022-08-01T05:45:49;98141.69;;;22.00;100.00
56912;BME280;42800;53.928;27.662;2022-08-01T05:48:16;98144.88;;;22.87;100.00
56912;BME280;42800;53.928;27.662;2022-08-01T05:50:42;97980.34;;;22.80;100.00
56912;BME280;42800;53.928;27.662;2022-08-01T05:53:09;97989.13;;;22.97;100.00
56912;BME280;42800;53.928;27.662;2022-08-01T05:55:35;98024.50;;;22.43;100.00
56912;BME280;42800;53.928;27.662;2022-08-01T05:58:02;98082.81;;;22.41;100.00
56912;BME280;42800;53.928;27.662;2022-08-01T06:00:28;98145.16;;;22.89;100.00
56912;BME280;42800;53.928;27.662;2022-08-01T06:02:55;97801.53;;;23.89;100.00
56912;BME280;42800;53.928;27.662;2022-08-01T06:05:21;97706.44;;;24.68;100.00
56912;BME280;42800;53.928;27.662;2022-08-01T06:07:48;97612.69;;;25.00;100.00
56912;BME280;42800;53.928;27.662;2022-08-01T06:10:14;97641.19;;;24.93;100.00
56912;BME280;42800;53.928;27.662;2022-08-01T06:12:40;97611.69;;;25.09;100.00
56912;BME280;42800;53.928;27.662;2022-08-01T06:15:07;97639.63;;;24.92;100.00
56912;BME280;42800;53.928;27.662;2022-08-01T06:17:34;97618.19;;;24.83;100.00
56912;BME280;42800;53.928;27.662;2022-08-01T06:20:01;97637.59;;;24.93;100.00
56912;BME280;42800;53.928;27.662;2022-08-01T06:22:27;97644.41;;;24.80;100.00
56912;BME280;42800;53.928;27.662;2022-08-01T06:24:53;97621.84;;;25.01;100.00
56912;BME280;42800;53.928;27.662;2022-08-01T06:27:20;97679.16;;;24.94;100.00
56912;BME280;42800;53.928;27.662;2022-08-01T06:29:46;97655.91;;;25.20;100.00
56912;BME280;42800;53.928;27.662;2022-08-01T06:32:12;97695.16;;;24.88;100.00
56912;BME280;42800;53.928;27.662;2022-08-01T06:34:39;97586.34;;;26.85;100.00
56912;BME280;42800;53.928;27.662;2022-08-01T06:37:06;97606.28;;;27.73;100.00
56912;BME280;42800;53.928;27.662;2022-08-01T06:39:32;97635.19;;;28.26;100.00
56912;BME280;42800;53.928;27.662;2022-08-01T06:41:58;97647.94;;;29.04;100.00
56912;BME280;42800;53.928;27.662;2022-08-01T06:44:24;97705.63;;;30.01;100.00
56912;BME280;42800;53.928;27.662;2022-08-01T06:46:51;97778.19;;;30.12;100.00
56912;BME280;42800;53.928;27.662;2022-08-01T06:49:17;97830.09;;;29.90;100.00
56912;BME280;42800;53.928;27.662;2022-08-01T06:51:43;97754.75;;;28.83;100.00
56912;BME280;42800;53.928;27.662;2022-08-01T06:54:10;97730.28;;;28.97;100.00
56912;BME280;42800;53.928;27.662;2022-08-01T06:56:36;97672.88;;;28.59;100.00
56912;BME280;42800;53.928;27.662;2022-08-01T06:59:02;97710.63;;;30.14;100.00
56912;BME280;42800;53.928;27.662;2022-08-01T07:01:29;97791.41;;;30.47;100.00
56912;BME280;42800;53.928;27.662;2022-08-01T07:03:55;97788.56;;;30.85;100.00
56912;BME280;42800;53.928;27.662;2022-08-01T07:06:23;97813.47;;;30.06;100.00
56912;BME280;42800;53.928;27.662;2022-08-01T07:08:50;97836.59;;;30.91;100.00
56912;BME280;42800;53.928;27.662;2022-08-01T07:11:17;97793.44;;;29.24;100.00
56912;BME280;42800;53.928;27.662;2022-08-01T07:13:43;97770.63;;;29.22;100.00
56912;BME280;42800;53.928;27.662;2022-08-01T07:16:11;97750.59;;;30.43;100.00
56912;BME280;42800;53.928;27.662;2022-08-01T07:18:37;97746.31;;;29.44;100.00
56912;BME280;42800;53.928;27.662;2022-08-01T07:21:03;97729.25;;;29.30;100.00
56912;BME280;42800;53.928;27.662;2022-08-01T07:23:30;97712.25;;;29.85;100.00
56912;BME280;42800;53.928;27.662;2022-08-01T07:25:56;97762.88;;;30.45;100.00
56912;BME280;42800;53.928;27.662;2022-08-01T07:28:23;97746.84;;;30.16;100.00
56912;BME280;42800;53.928;27.662;2022-08-01T07:30:49;97781.31;;;30.33;100.00
56912;BME280;42800;53.928;27.662;2022-08-01T07:33:15;97784.59;;;30.94;100.00
56912;BME280;42800;53.928;27.662;2022-08-01T07:35:41;97788.72;;;29.93;100.00
56912;BME280;42800;53.928;27.662;2022-08-01T07:38:08;97751.81;;;29.61;100.00
56912;BME280;42800;53.928;27.662;2022-08-01T07:40:34;97773.00;;;29.97;100.00
56912;BME280;42800;53.928;27.662;2022-08-01T07:43:00;97783.34;;;29.65;100.00
56912;BME280;42800;53.928;27.662;2022-08-01T07:45:27;97738.84;;;28.86;100.00
56912;BME280;42800;53.928;27.662;2022-08-01T07:47:53;97737.44;;;29.34;100.00
56912;BME280;42800;53.928;27.662;2022-08-01T07:50:19;97712.97;;;28.46;100.00
56912;BME280;42800;53.928;27.662;2022-08-01T07:52:46;97691.91;;;29.19;100.00
56912;BME280;42800;53.928;27.662;2022-08-01T07:55:12;97781.75;;;30.75;100.00
56912;BME280;42800;53.928;27.662;2022-08-01T07:57:39;97795.38;;;30.95;100.00
56912;BME280;42800;53.928;27.662;2022-08-01T08:00:06;97733.09;;;29.33;100.00
56912;BME280;42800;53.928;27.662;2022-08-01T08:02:35;97746.84;;;29.91;100.00
56912;BME280;42800;53.928;27.662;2022-08-01T08:05:01;97745.31;;;29.41;100.00
56912;BME280;42800;53.928;27.662;2022-08-01T08:07:29;97745.50;;;29.19;100.00
56912;BME280;42800;53.928;27.662;2022-08-01T08:09:55;97735.69;;;29.80;100.00
56912;BME280;42800;53.928;27.662;2022-08-01T08:12:21;97794.00;;;30.64;100.00
56912;BME280;42800;53.928;27.662;2022-08-01T08:14:48;97781.28;;;29.05;100.00
56912;BME280;42800;53.928;27.662;2022-08-01T08:17:14;97752.66;;;28.54;100.00
56912;BME280;42800;53.928;27.662;2022-08-01T08:19:41;97764.91;;;29.34;100.00
56912;BME280;42800;53.928;27.662;2022-08-01T08:22:08;97733.91;;;28.92;100.00
56912;BME280;42800;53.928;27.662;2022-08-01T08:24:35;97730.00;;;29.86;100.00
56912;BME280;42800;53.928;27.662;2022-08-01T08:27:02;97744.41;;;29.27;100.00
56912;BME280;42800;53.928;27.662;2022-08-01T08:29:29;97769.31;;;29.53;100.00
56912;BME280;42800;53.928;27.662;2022-08-01T08:31:58;97771.19;;;30.19;100.00
56912;BME280;42800;53.928;27.662;2022-08-01T08:34:25;97752.50;;;30.35;100.00
56912;BME280;42800;53.928;27.662;2022-08-01T08:36:53;97885.66;;;30.75;100.00
56912;BME280;42800;53.928;27.662;2022-08-01T08:39:20;97845.13;;;30.47;100.00
56912;BME280;42800;53.928;27.662;2022-08-01T08:41:47;97899.22;;;30.82;100.00
56912;BME280;42800;53.928;27.662;2022-08-01T08:44:13;97896.16;;;30.99;100.00
56912;BME280;42800;53.928;27.662;2022-08-01T08:46:42;97950.31;;;31.65;100.00
56912;BME280;42800;53.928;27.662;2022-08-01T08:49:10;97948.59;;;32.53;100.00
56912;BME280;42800;53.928;27.662;2022-08-01T08:51:39;97947.78;;;32.39;100.00
56912;BME280;42800;53.928;27.662;2022-08-01T08:54:07;97972.53;;;31.61;100.00
56912;BME280;42800;53.928;27.662;2022-08-01T08:56:34;97926.44;;;31.60;100.00
56912;BME280;42800;53.928;27.662;2022-08-01T08:59:02;98009.66;;;31.57;100.00
56912;BME280;42800;53.928;27.662;2022-08-01T09:01:28;97967.13;;;30.57;100.00
56912;BME280;42800;53.928;27.662;2022-08-01T09:03:57;97946.34;;;32.06;100.00
56912;BME280;42800;53.928;27.662;2022-08-01T09:06:24;97970.28;;;32.05;100.00
56912;BME280;42800;53.928;27.662;2022-08-01T09:08:50;97960.31;;;30.47;100.00
56912;BME280;42800;53.928;27.662;2022-08-01T09:11:17;97945.63;;;30.48;100.00
56912;BME280;42800;53.928;27.662;2022-08-01T09:14:01;97975.38;;;30.55;100.00
56912;BME280;42800;53.928;27.662;2022-08-01T09:16:28;97976.06;;;31.48;100.00
56912;BME280;42800;53.928;27.662;2022-08-01T09:19:06;97977.41;;;31.04;100.00
56912;BME280;42800;53.928;27.662;2022-08-01T09:21:33;97972.75;;;31.25;100.00
56912;BME280;42800;53.928;27.662;2022-08-01T09:23:59;97941.16;;;32.50;100.00
56912;BME280;42800;53.928;27.662;2022-08-01T09:26:30;98035.69;;;31.94;100.00
56912;BME280;42800;53.928;27.662;2022-08-01T09:28:57;98019.00;;;31.33;100.00
56912;BME280;42800;53.928;27.662;2022-08-01T09:31:26;98009.84;;;31.03;100.00
56912;BME280;42800;53.928;27.662;2022-08-01T09:33:54;97980.97;;;31.48;100.00
56912;BME280;42800;53.928;27.662;2022-08-01T09:36:21;98001.19;;;32.22;100.00
56912;BME280;42800;53.928;27.662;2022-08-01T09:38:48;98017.44;;;32.53;100.00
56912;BME280;42800;53.928;27.662;2022-08-01T09:41:15;98019.31;;;30.86;100.00
56912;BME280;42800;53.928;27.662;2022-08-01T09:43:48;98008.78;;;31.25;100.00
56912;BME280;42800;53.928;27.662;2022-08-01T09:46:14;97964.78;;;31.61;100.00
56912;BME280;42800;53.928;27.662;2022-08-01T09:48:55;97965.66;;;32.21;100.00
56912;BME280;42800;53.928;27.662;2022-08-01T09:51:28;97964.59;;;32.90;100.00
56912;BME280;42800;53.928;27.662;2022-08-01T09:53:55;98019.16;;;32.43;100.00
56912;BME280;42800;53.928;27.662;2022-08-01T09:56:22;98032.31;;;31.76;100.00
56912;BME280;42800;53.928;27.662;2022-08-01T09:58:54;97999.94;;;30.41;100.00
56912;BME280;42800;53.928;27.662;2022-08-01T10:01:21;97983.00;;;30.66;100.00
56912;BME280;42800;53.928;27.662;2022-08-01T10:04:04;97970.63;;;31.50;100.00
56912;BME280;42800;53.928;27.662;2022-08-01T10:06:31;98002.91;;;32.44;100.00
56912;BME280;42800;53.928;27.662;2022-08-01T10:08:57;98040.72;;;32.33;100.00
56912;BME280;42800;53.928;27.662;2022-08-01T10:11:23;97997.06;;;31.39;100.00
56912;BME280;42800;53.928;27.662;2022-08-01T10:13:50;98008.19;;;31.88;100.00
56912;BME280;42800;53.928;27.662;2022-08-01T10:16:17;97979.47;;;31.22;100.00
56912;BME280;42800;53.928;27.662;2022-08-01T10:18:44;97985.09;;;31.47;100.00
56912;BME280;42800;53.928;27.662;2022-08-01T10:21:12;97992.81;;;31.65;100.00
56912;BME280;42800;53.928;27.662;2022-08-01T10:23:39;97947.88;;;30.80;100.00
56912;BME280;42800;53.928;27.662;2022-08-01T10:26:08;97980.19;;;31.66;100.00
56912;BME280;42800;53.928;27.662;2022-08-01T10:28:36;97963.66;;;30.70;100.00
56912;BME280;42800;53.928;27.662;2022-08-01T10:31:04;97906.84;;;30.68;100.00
56912;BME280;42800;53.928;27.662;2022-08-01T10:33:32;97910.47;;;31.44;100.00
56912;BME280;42800;53.928;27.662;2022-08-01T10:36:01;97907.41;;;30.85;100.00
56912;BME280;42800;53.928;27.662;2022-08-01T10:38:28;97912.09;;;30.83;100.00
56912;BME280;42800;53.928;27.662;2022-08-01T10:40:56;97933.72;;;31.18;100.00
56912;BME280;42800;53.928;27.662;2022-08-01T10:43:23;97945.50;;;30.35;100.00
56912;BME280;42800;53.928;27.662;2022-08-01T10:45:49;97956.47;;;30.44;100.00
56912;BME280;42800;53.928;27.662;2022-08-01T10:48:20;97946.09;;;30.77;100.00
56912;BME280;42800;53.928;27.662;2022-08-01T10:50:52;97918.22;;;30.87;100.00
56912;BME280;42800;53.928;27.662;2022-08-01T10:53:20;97955.47;;;30.42;100.00
56912;BME280;42800;53.928;27.662;2022-08-01T10:55:49;97929.44;;;30.49;100.00
56912;BME280;42800;53.928;27.662;2022-08-01T10:58:24;97923.31;;;30.88;100.00
56912;BME280;42800;53.928;27.662;2022-08-01T11:01:18;97917.31;;;30.30;100.00
56912;BME280;42800;53.928;27.662;2022-08-01T11:04:01;97891.50;;;31.01;100.00
56912;BME280;42800;53.928;27.662;2022-08-01T11:06:44;97867.38;;;30.76;100.00
56912;BME280;42800;53.928;27.662;2022-08-01T11:09:22;97829.28;;;29.35;100.00
56912;BME280;42800;53.928;27.662;2022-08-01T11:12:04;97775.88;;;30.35;100.00
56912;BME280;42800;53.928;27.662;2022-08-01T11:14:33;97869.97;;;29.15;100.00
56912;BME280;42800;53.928;27.662;2022-08-01T11:17:30;97826.47;;;29.65;100.00
56912;BME280;42800;53.928;27.662;2022-08-01T11:20:04;97810.19;;;28.75;100.00
56912;BME280;42800;53.928;27.662;2022-08-01T11:22:32;97778.41;;;29.71;100.00
56912;BME280;42800;53.928;27.662;2022-08-01T11:24:58;97884.97;;;29.70;100.00
56912;BME280;42800;53.928;27.662;2022-08-01T11:27:27;97889.22;;;29.11;100.00
56912;BME280;42800;53.928;27.662;2022-08-01T11:30:21;97873.69;;;28.88;100.00
56912;BME280;42800;53.928;27.662;2022-08-01T11:32:48;97818.69;;;29.11;100.00
56912;BME280;42800;53.928;27.662;2022-08-01T11:35:16;97777.13;;;28.76;100.00
56912;BME280;42800;53.928;27.662;2022-08-01T11:37:43;97821.03;;;29.07;100.00
56912;BME280;42800;53.928;27.662;2022-08-01T11:40:18;97845.00;;;28.89;100.00
56912;BME280;42800;53.928;27.662;2022-08-01T11:42:45;97789.31;;;29.25;100.00
56912;BME280;42800;53.928;27.662;2022-08-01T11:45:11;97856.69;;;29.04;100.00
56912;BME280;42800;53.928;27.662;2022-08-01T11:47:44;97812.44;;;29.60;100.00
56912;BME280;42800;53.928;27.662;2022-08-01T11:50:35;97867.75;;;29.02;100.00
56912;BME280;42800;53.928;27.662;2022-08-01T11:53:05;97846.59;;;29.20;100.00
56912;BME280;42800;53.928;27.662;2022-08-01T11:55:32;97827.09;;;28.75;100.00
56912;BME280;42800;53.928;27.662;2022-08-01T11:58:00;97804.75;;;28.36;100.00
56912;BME280;42800;53.928;27.662;2022-08-01T12:00:27;97812.03;;;27.98;100.00
56912;BME280;42800;53.928;27.662;2022-08-01T12:03:00;97773.41;;;27.87;100.00
56912;BME280;42800;53.928;27.662;2022-08-01T12:05:27;97747.34;;;28.33;100.00
56912;BME280;42800;53.928;27.662;2022-08-01T12:07:54;97818.34;;;28.26;100.00
56912;BME280;42800;53.928;27.662;2022-08-01T12:10:23;97806.34;;;28.20;100.00
56912;BME280;42800;53.928;27.662;2022-08-01T12:12:51;97727.31;;;27.90;100.00
56912;BME280;42800;53.928;27.662;2022-08-01T12:15:19;97772.94;;;27.66;100.00
56912;BME280;42800;53.928;27.662;2022-08-01T12:17:46;97785.41;;;28.63;100.00
56912;BME280;42800;53.928;27.662;2022-08-01T12:20:15;97747.31;;;28.86;100.00
56912;BME280;42800;53.928;27.662;2022-08-01T12:22:42;97737.13;;;28.30;100.00
56912;BME280;42800;53.928;27.662;2022-08-01T12:25:10;97724.78;;;27.81;100.00
56912;BME280;42800;53.928;27.662;2022-08-01T12:27:39;97752.63;;;27.96;100.00
56912;BME280;42800;53.928;27.662;2022-08-01T12:30:07;97749.06;;;27.95;100.00
56912;BME280;42800;53.928;27.662;2022-08-01T12:32:35;97727.38;;;28.31;100.00
56912;BME280;42800;53.928;27.662;2022-08-01T12:35:04;97759.19;;;28.26;100.00
56912;BME280;42800;53.928;27.662;2022-08-01T12:37:31;97726.88;;;28.27;100.00
56912;BME280;42800;53.928;27.662;2022-08-01T12:39:59;97751.38;;;27.97;100.00
56912;BME280;42800;53.928;27.662;2022-08-01T12:42:25;97735.94;;;28.09;100.00
56912;BME280;42800;53.928;27.662;2022-08-01T12:44:52;97746.72;;;28.57;100.00
56912;BME280;42800;53.928;27.662;2022-08-01T12:47:21;97758.09;;;28.46;100.00